Time;durP1;ratioP1;P1;durP2;ratioP2;P2;SDS_P1;SDS_P2;PMS_P1;PMS_P2;Temp;Humidity;BMP_temperature;BMP_pressure;BME280_temperature;BME280_humidity;BME280_pressure;Samples;Min_cycle;Max_cycle;Signal;HPM_P1;HPM_P2
2022/03/29 06:14:50;;;;;;;14.37;11.83;;;;;;;;;;10545959;27;20511;-83
2022/03/29 06:20:17;;;;;;;22.50;17.35;;;;;;;;;;10506639;28;20029;-83
2022/03/29 06:25:18;;;;;;;20.52;16.25;;;;;;;;;;10505114;28;20028;-83
2022/03/29 06:30:19;;;;;;;21.50;15.77;;;;;;;;;;10505947;28;20050;-84
2022/03/29 06:35:24;;;;;;;20.27;16.27;;;;;;;;;;10506080;28;20059;-83
2022/03/29 06:40:26;;;;;;;35.03;26.75;;;;;;;;;;10504847;28;20028;-84
2022/03/29 06:45:28;;;;;;;40.60;30.50;;;;;;;;;;10513268;28;20081;-84
2022/03/29 06:50:29;;;;;;;15.82;12.07;;;;;;;;;;10504901;28;20060;-85
2022/03/29 06:55:30;;;;;;;;;;;;;;;;;;10505909;28;20061;-85
2022/03/29 07:00:31;;;;;;;15.90;11.40;;;;;;;;;;10539011;28;19915;-84
2022/03/29 07:05:32;;;;;;;11.43;9.00;;;;;;;;;;10522614;28;20538;-78
2022/03/29 07:15:54;;;;;;;19.25;14.10;;;;;;;;;;10465023;28;20481;-77
2022/03/29 07:20:54;;;;;;;22.10;16.77;;;;;;;;;;10461587;28;20035;-76
2022/03/29 07:25:56;;;;;;;25.20;17.05;;;;;;;;;;10461884;28;20029;-77
2022/03/29 07:30:57;;;;;;;24.02;17.65;;;;;;;;;;10460737;28;20087;-76
2022/03/29 07:35:58;;;;;;;21.65;16.08;;;;;;;;;;10467088;28;20110;-80
2022/03/29 07:40:59;;;;;;;24.27;17.70;;;;;;;;;;10472583;28;20025;-80
2022/03/29 07:46:00;;;;;;;24.13;17.90;;;;;;;;;;10470855;28;20037;-80
2022/03/29 07:51:02;;;;;;;29.98;24.73;;;;;;;;;;10476579;28;20040;-84
2022/03/29 07:56:04;;;;;;;27.25;20.80;;;;;;;;;;10486303;28;20024;-86
2022/03/29 08:01:05;;;;;;;26.90;21.15;;;;;;;;;;10478481;28;20396;-84
2022/03/29 08:06:09;;;;;;;27.20;19.85;;;;;;;;;;10477641;28;20092;-85
2022/03/29 08:11:10;;;;;;;18.30;14.07;;;;;;;;;;10476794;28;20032;-84
2022/03/29 08:16:11;;;;;;;22.80;17.42;;;;;;;;;;10477230;28;20753;-84
2022/03/29 08:26:33;;;;;;;18.48;14.45;;;;;;;;;;10477794;28;20033;-87
2022/03/29 08:31:34;;;;;;;21.83;16.65;;;;;;;;;;10481592;28;20029;-83
2022/03/29 08:36:38;;;;;;;21.85;17.13;;;;;;;;;;10480977;28;20096;-82
2022/03/29 08:41:40;;;;;;;23.38;17.00;;;;;;;;;;10488296;28;20033;-85
2022/03/29 08:46:42;;;;;;;26.17;20.20;;;;;;;;;;10485038;28;20037;-84
2022/03/29 08:51:46;;;;;;;20.48;14.02;;;;;;;;;;10489369;28;20028;-80
2022/03/29 08:56:50;;;;;;;26.20;16.73;;;;;;;;;;10482427;28;20029;-81
2022/03/29 09:01:51;;;;;;;23.10;16.95;;;;;;;;;;10471270;28;20040;-81
2022/03/29 09:06:57;;;;;;;25.60;17.85;;;;;;;;;;10471474;28;20123;-83
2022/03/29 09:11:59;;;;;;;26.05;18.98;;;;;;;;;;10471774;28;20506;-81
2022/03/29 09:17:00;;;;;;;18.67;13.98;;;;;;;;;;10471951;28;20017;-85
2022/03/29 09:22:03;;;;;;;25.85;18.70;;;;;;;;;;10473292;28;20048;-85
2022/03/29 09:27:09;;;;;;;19.02;13.68;;;;;;;;;;10472592;28;20040;-85
2022/03/29 09:32:17;;;;;;;35.75;26.73;;;;;;;;;;10471458;28;20033;-85
2022/03/29 09:37:33;;;;;;;32.53;22.70;;;;;;;;;;10471245;28;20027;-85
2022/03/29 09:42:34;;;;;;;22.02;16.95;;;;;;;;;;10469557;28;20025;-80
2022/03/29 09:47:38;;;;;;;21.48;15.25;;;;;;;;;;10468365;28;20028;-79
2022/03/29 09:52:40;;;;;;;23.95;17.50;;;;;;;;;;10464870;28;20031;-80
2022/03/29 09:57:42;;;;;;;22.60;16.58;;;;;;;;;;10467638;28;20020;-80
2022/03/29 10:02:45;;;;;;;18.33;13.90;;;;;;;;;;10467914;28;20671;-79
2022/03/29 10:07:49;;;;;;;19.20;13.98;;;;;;;;;;10470066;28;20032;-79
2022/03/29 10:12:50;;;;;;;27.98;20.05;;;;;;;;;;10468246;28;20037;-79
2022/03/29 10:17:51;;;;;;;21.58;16.15;;;;;;;;;;10467378;28;20457;-80
2022/03/29 10:22:53;;;;;;;30.80;22.67;;;;;;;;;;10467915;28;20025;-80
2022/03/29 10:27:55;;;;;;;27.17;20.55;;;;;;;;;;10469459;28;20017;-79
2022/03/29 10:33:14;;;;;;;20.35;15.32;;;;;;;;;;10475855;28;20044;-79
2022/03/29 10:38:15;;;;;;;24.75;17.67;;;;;;;;;;10467291;28;20017;-79
2022/03/29 10:43:30;;;;;;;35.17;23.52;;;;;;;;;;10468679;28;20492;-79
2022/03/29 10:48:31;;;;;;;19.88;14.90;;;;;;;;;;10471175;28;20493;-81
2022/03/29 10:53:36;;;;;;;20.30;14.52;;;;;;;;;;10476932;28;20029;-83
2022/03/29 10:58:57;;;;;;;19.63;13.70;;;;;;;;;;10484411;28;20009;-82
2022/03/29 11:03:59;;;;;;;;;;;;;;;;;;10464909;28;20029;-77
2022/03/29 11:09:07;;;;;;;29.60;21.45;;;;;;;;;;10483038;28;19905;-81
2022/03/29 11:14:27;;;;;;;26.33;19.15;;;;;;;;;;10477344;28;20037;-79
2022/03/29 11:19:46;;;;;;;17.80;13.38;;;;;;;;;;10472341;28;20029;-79
2022/03/29 11:24:48;;;;;;;25.05;17.88;;;;;;;;;;10475259;28;20051;-83
2022/03/29 11:29:53;;;;;;;24.45;16.80;;;;;;;;;;10474141;28;20025;-82
2022/03/29 11:34:58;;;;;;;25.75;19.55;;;;;;;;;;10474931;28;20021;-83
2022/03/29 11:40:01;;;;;;;27.15;18.42;;;;;;;;;;10488174;28;20077;-82
2022/03/29 11:45:06;;;;;;;21.60;17.50;;;;;;;;;;10499782;28;20148;-82
2022/03/29 11:50:07;;;;;;;24.80;17.90;;;;;;;;;;10489306;28;20032;-82
2022/03/29 11:55:16;;;;;;;24.70;19.67;;;;;;;;;;10480774;28;20036;-82
2022/03/29 12:00:23;;;;;;;17.17;12.63;;;;;;;;;;10474849;28;20031;-83
2022/03/29 12:05:25;;;;;;;17.95;14.27;;;;;;;;;;10474566;28;20032;-84
2022/03/29 12:10:34;;;;;;;12.15;9.98;;;;;;;;;;10471224;28;20039;-82
2022/03/29 12:15:36;;;;;;;18.45;14.43;;;;;;;;;;10530637;23;20048;-77
2022/03/29 12:20:37;;;;;;;23.08;16.70;;;;;;;;;;10516360;28;20521;-77
2022/03/29 12:25:38;;;;;;;25.05;19.73;;;;;;;;;;10522315;28;20032;-78
2022/03/29 12:30:40;;;;;;;16.23;13.13;;;;;;;;;;10524070;28;20040;-78
2022/03/29 12:35:41;;;;;;;22.20;17.33;;;;;;;;;;10522572;28;20024;-78
2022/03/29 12:40:53;;;;;;;16.60;12.32;;;;;;;;;;10520084;28;20031;-77
2022/03/29 12:45:54;;;;;;;13.85;10.00;;;;;;;;;;10506459;28;20448;-78
2022/03/29 12:50:55;;;;;;;18.17;13.80;;;;;;;;;;10509040;28;20027;-78
2022/03/29 12:55:57;;;;;;;12.15;9.18;;;;;;;;;;10509375;28;20108;-78
2022/03/29 13:01:00;;;;;;;21.25;16.23;;;;;;;;;;10506354;28;20086;-78
2022/03/29 13:06:05;;;;;;;14.13;11.30;;;;;;;;;;10506365;28;20373;-77
2022/03/29 13:11:19;;;;;;;16.85;13.18;;;;;;;;;;10504221;28;20024;-78
2022/03/29 13:16:22;;;;;;;16.45;13.32;;;;;;;;;;10514057;28;20078;-78
2022/03/29 13:21:27;;;;;;;14.25;11.23;;;;;;;;;;10510954;28;20055;-77
2022/03/29 13:26:29;;;;;;;15.20;11.60;;;;;;;;;;10510855;28;20035;-78
2022/03/29 13:31:31;;;;;;;12.57;10.85;;;;;;;;;;10511595;28;20030;-78
2022/03/29 13:36:32;;;;;;;15.35;11.75;;;;;;;;;;10509049;28;20020;-77
2022/03/29 13:41:34;;;;;;;23.77;19.13;;;;;;;;;;10523369;28;20090;-78
2022/03/29 13:46:35;;;;;;;21.17;16.52;;;;;;;;;;10515805;28;20032;-78
2022/03/29 13:51:36;;;;;;;14.23;11.57;;;;;;;;;;10511811;28;20032;-78
2022/03/29 13:56:37;;;;;;;22.05;16.50;;;;;;;;;;10505546;28;20032;-78
2022/03/29 14:01:38;;;;;;;16.13;12.15;;;;;;;;;;10502849;28;20021;-78
2022/03/29 14:06:39;;;;;;;28.33;21.67;;;;;;;;;;10503689;28;20028;-78
2022/03/29 14:11:40;;;;;;;16.75;13.07;;;;;;;;;;10503995;28;20120;-78
2022/03/29 14:16:41;;;;;;;22.05;16.55;;;;;;;;;;10503366;28;20056;-78
2022/03/29 14:21:43;;;;;;;25.60;19.88;;;;;;;;;;10508045;28;20042;-77
2022/03/29 14:26:44;;;;;;;20.77;15.82;;;;;;;;;;10513050;28;20032;-77
2022/03/29 14:31:45;;;;;;;26.88;19.83;;;;;;;;;;10515781;28;20016;-77
2022/03/29 14:36:46;;;;;;;27.48;19.38;;;;;;;;;;10514917;28;20407;-77
2022/03/29 14:41:48;;;;;;;15.82;11.68;;;;;;;;;;10523169;28;20445;-78
2022/03/29 14:46:53;;;;;;;25.90;19.83;;;;;;;;;;10528625;28;20085;-79
2022/03/29 14:51:59;;;;;;;24.42;18.45;;;;;;;;;;10530265;28;20562;-78
2022/03/29 14:57:00;;;;;;;20.98;16.63;;;;;;;;;;10519760;28;20017;-77
2022/03/29 15:02:01;;;;;;;22.75;17.90;;;;;;;;;;10510051;28;20484;-75
2022/03/29 15:07:03;;;;;;;25.58;19.60;;;;;;;;;;10508143;28;20031;-76
2022/03/29 15:12:04;;;;;;;26.10;19.08;;;;;;;;;;10515433;28;20032;-76
2022/03/29 15:17:06;;;;;;;14.68;11.43;;;;;;;;;;10518761;28;20111;-76
2022/03/29 15:22:08;;;;;;;26.23;19.95;;;;;;;;;;10518689;28;20035;-77
2022/03/29 15:27:09;;;;;;;17.92;12.25;;;;;;;;;;10516356;28;20048;-76
2022/03/29 15:32:10;;;;;;;24.92;17.60;;;;;;;;;;10518520;28;20024;-76
2022/03/29 15:37:14;;;;;;;23.65;18.55;;;;;;;;;;10516122;28;20028;-75
2022/03/29 15:42:15;;;;;;;20.23;15.82;;;;;;;;;;10515337;28;20020;-77
2022/03/29 15:47:18;;;;;;;28.30;21.52;;;;;;;;;;10514080;28;20034;-75
2022/03/29 15:52:19;;;;;;;20.27;14.98;;;;;;;;;;10515709;28;20036;-76
2022/03/29 15:57:21;;;;;;;26.83;19.55;;;;;;;;;;10515086;28;20096;-77
2022/03/29 16:02:22;;;;;;;19.23;14.43;;;;;;;;;;10516674;28;20035;-75
2022/03/29 16:07:23;;;;;;;24.02;19.23;;;;;;;;;;10514936;28;20024;-76
2022/03/29 16:12:24;;;;;;;30.63;20.35;;;;;;;;;;10510954;28;20032;-77
2022/03/29 16:17:26;;;;;;;10.15;6.70;;;;;;;;;;10518433;28;20127;-78
2022/03/29 17:28:32;;;;;;;10.43;8.75;;;;;;;;;;10460907;28;20029;-84
2022/03/29 17:33:45;;;;;;;10.70;8.67;;;;;;;;;;10480040;28;20091;-84
2022/03/29 17:44:51;;;;;;;8.20;7.30;;;;;;;;;;10466458;28;20400;-84
2022/03/29 17:56:17;;;;;;;10.32;8.57;;;;;;;;;;10385386;28;20442;-83
2022/03/29 18:01:58;;;;;;;8.50;7.20;;;;;;;;;;10456415;28;20029;-83
2022/03/29 18:07:04;;;;;;;7.00;5.82;;;;;;;;;;10417322;28;20037;-84
2022/03/29 18:12:33;;;;;;;12.15;10.35;;;;;;;;;;10449268;28;20087;-85
2022/03/29 18:34:54;;;;;;;8.20;6.97;;;;;;;;;;10472747;28;20041;-84
2022/03/29 18:40:14;;;;;;;10.73;8.82;;;;;;;;;;10455185;28;20433;-85
2022/03/29 18:45:36;;;;;;;8.55;7.10;;;;;;;;;;10471505;28;20436;-85
2022/03/29 18:50:44;;;;;;;7.93;6.53;;;;;;;;;;10459965;28;20053;-84
2022/03/29 18:56:15;;;;;;;13.10;10.27;;;;;;;;;;10446398;28;20037;-84
2022/03/29 19:01:41;;;;;;;11.07;8.18;;;;;;;;;;10475576;28;20040;-82
2022/03/29 19:07:10;;;;;;;9.07;7.68;;;;;;;;;;10492883;28;20057;-83
2022/03/29 19:12:59;;;;;;;10.23;8.63;;;;;;;;;;10500682;28;20037;-83
2022/03/29 19:18:57;;;;;;;11.30;9.20;;;;;;;;;;10491616;28;20037;-85
2022/03/29 19:24:49;;;;;;;10.02;7.88;;;;;;;;;;10477111;28;20503;-85
